Time;durP1;ratioP1;P1;durP2;ratioP2;P2;SDS_P1;SDS_P2;PMS_P1;PMS_P2;Temp;Humidity;BMP_temperature;BMP_pressure;BME280_temperature;BME280_humidity;BME280_pressure;Samples;Min_cycle;Max_cycle;Signal;HPM_P1;HPM_P2
2021/11/02 00:00:12;;;;;;;;;;;;;;;;;;1040669;28;1471;-19
2021/11/02 00:00:42;;;;;;;;;;;;;;;;;;1041206;28;1175;-19
2021/11/02 00:01:13;;;;;;;;;;;;;;;;;;1041005;28;1785;-19
2021/11/02 00:01:44;;;;;;;;;;;;;;;;;;1041174;28;1225;-19
2021/11/02 00:02:14;;;;;;;;;;;;;;;;;;1037209;28;1027;-20
2021/11/02 00:02:48;;;;;;;;;;;;;;;;;;1036775;28;1756;-19
2021/11/02 00:03:20;;;;;;;;;;;;;;;;;;1037154;28;1271;-19
2021/11/02 00:03:50;;;;;;;;;;;;;;;;;;1036289;28;1401;-19
2021/11/02 00:04:26;;;;;;;;;;;;;;;;;;1033081;28;1291;-19
2021/11/02 00:04:59;;;;;;;;;;;;;;;;;;1033195;28;1220;-19
2021/11/02 00:05:30;;;;;;;;;;;;;;;;;;1032760;28;1367;-21
2021/11/02 00:06:01;;;;;;;;;;;;;;;;;;1033931;28;1253;-21
2021/11/02 00:06:33;;;;;;;;;;;;;;;;;;1033706;28;1494;-20
2021/11/02 00:07:04;;;;;;;;;;;;;;;;;;1041314;28;1145;-20
2021/11/02 00:07:35;;;;;;;;;;;;;;;;;;1045281;28;1217;-19
2021/11/02 00:08:06;;;;;;;;;;;;;;;;;;1044885;28;1494;-20
2021/11/02 00:08:37;;;;;;;;;;;;;;;;;;1048451;28;1018;-18
2021/11/02 00:09:08;;;;;;;;;;;;;;;;;;1041423;28;883;-20
2021/11/02 00:09:40;;;;;;;;;;;;;;;;;;1036777;28;1502;-19
2021/11/02 00:10:15;;;;;;;;;;;;;;;;;;1036430;28;1091;-20
2021/11/02 00:10:46;;;;;;;;;;;;;;;;;;1033910;28;1043;-20
2021/11/02 00:11:17;;;;;;;;;;;;;;;;;;1036918;28;1209;-19
2021/11/02 00:11:47;;;;;;;;;;;;;;;;;;1037384;28;1154;-19
2021/11/02 00:12:18;;;;;;;;;;;;;;;;;;1036883;28;1842;-20
2021/11/02 00:12:49;;;;;;;;;;;;;;;;;;1037059;28;1910;-20
2021/11/02 00:13:25;;;;;;;;;;;;;;;;;;1033065;28;1409;-19
2021/11/02 00:14:00;;;;;;;;;;;;;;;;;;1024714;28;1177;-19
2021/11/02 00:14:32;;;;;;;;;;;;;;;;;;1023531;28;1097;-20
2021/11/02 00:15:04;;;;;;;;;;;;;;;;;;1026694;28;1251;-19
2021/11/02 00:15:35;;;;;;;;;;;;;;;;;;1032308;28;1025;-19
2021/11/02 00:16:09;;;;;;;;;;;;;;;;;;1041163;28;1477;-18
2021/11/02 00:16:43;;;;;;;;;;;;;;;;;;1035920;28;1407;-19
2021/11/02 00:17:17;;;;;;;;;;;;;;;;;;1031917;28;1227;-19
2021/11/02 00:17:50;;;;;;;;;;;;;;;;;;1028818;28;1399;-18
2021/11/02 00:18:23;;;;;;;;;;;;;;;;;;1038764;28;1129;-19
2021/11/02 00:19:02;;;;;;;;;;;;;;;;;;1032498;28;1354;-18
2021/11/02 00:19:35;;;;;;;;;;;;;;;;;;1037057;28;1251;-20
2021/11/02 00:20:08;;;;;;;;;;;;;;;;;;1026999;28;1176;-19
2021/11/02 00:20:39;;;;;;;;;;;;;;;;;;1024661;28;1435;-19
2021/11/02 00:21:12;;;;;;;;;;;;;;;;;;1028418;28;1240;-19
2021/11/02 00:21:46;;;;;;;;;;;;;;;;;;1026315;28;1488;-20
2021/11/02 00:22:17;;;;;;;;;;;;;;;;;;1032986;28;1007;-19
2021/11/02 00:22:55;;;;;;;;;;;;;;;;;;1041477;28;1220;-20
2021/11/02 00:23:28;;;;;;;;;;;;;;;;;;1045243;28;1230;-19
2021/11/02 00:24:14;;;;;;;;;;;;;;;;;;1049606;28;1072;-20
2021/11/02 00:25:27;;;;;;;;;;;;;;;;;;1025307;28;1134;-20
2021/11/02 00:25:57;;;;;;;;;;;;;;;;;;1020446;28;1361;-19
2021/11/02 00:26:28;;;;;;;;;;;;;;;;;;1031225;28;1024;-20
2021/11/02 00:26:59;;;;;;;;;;;;;;;;;;1045315;28;964;-20
2021/11/02 00:27:31;;;;;;;;;;;;;;;;;;1049490;28;1592;-20
2021/11/02 00:28:05;;;;;;;;;;;;;;;;;;1040361;28;1056;-21
2021/11/02 00:28:35;;;;;;;;;;;;;;;;;;1036166;28;907;-19
2021/11/02 00:29:06;;;;;;;;;;;;;;;;;;1032053;28;1303;-20
2021/11/02 00:29:36;;;;;;;;;;;;;;;;;;1026211;28;1172;-20
2021/11/02 00:30:11;;;;;;;;;;;;;;;;;;1029612;28;879;-19
2021/11/02 00:30:42;;;;;;;;;;;;;;;;;;1032865;28;1078;-20
2021/11/02 00:31:12;;;;;;;;;;;;;;;;;;1028930;28;1187;-19
2021/11/02 00:31:43;;;;;;;;;;;;;;;;;;1029888;28;915;-19
2021/11/02 00:32:14;;;;;;;;;;;;;;;;;;1032891;28;1351;-19
2021/11/02 00:32:50;;;;;;;;;;;;;;;;;;1033075;28;1910;-20
2021/11/02 00:33:21;;;;;;;;;;;;;;;;;;1033224;28;1040;-19
2021/11/02 00:33:51;;;;;;;;;;;;;;;;;;1032464;28;1429;-19
2021/11/02 00:34:21;;;;;;;;;;;;;;;;;;1033266;28;1339;-19
2021/11/02 00:34:57;;;;;;;;;;;;;;;;;;1033153;28;1086;-19
2021/11/02 00:35:27;;;;;;;;;;;;;;;;;;1033478;28;1110;-19
2021/11/02 00:35:58;;;;;;;;;;;;;;;;;;1034101;28;970;-19
2021/11/02 00:36:28;;;;;;;;;;;;;;;;;;1036973;28;1439;-20
2021/11/02 00:36:58;;;;;;;;;;;;;;;;;;1037182;28;1222;-20
2021/11/02 00:37:32;;;;;;;;;;;;;;;;;;1041501;28;1053;-19
2021/11/02 00:38:03;;;;;;;;;;;;;;;;;;1040850;28;1150;-19
2021/11/02 00:38:37;;;;;;;;;;;;;;;;;;1041148;28;1211;-20
2021/11/02 00:39:08;;;;;;;;;;;;;;;;;;1042774;28;1456;-19
2021/11/02 00:39:38;;;;;;;;;;;;;;;;;;1037688;28;1075;-17
2021/11/02 00:40:11;;;;;;;;;;;;;;;;;;1041548;28;966;-19
2021/11/02 00:40:44;;;;;;;;;;;;;;;;;;1039915;28;1290;-19
2021/11/02 00:41:14;;;;;;;;;;;;;;;;;;1037155;28;1110;-20
2021/11/02 00:41:45;;;;;;;;;;;;;;;;;;1036911;28;1370;-19
2021/11/02 00:42:16;;;;;;;;;;;;;;;;;;1037207;28;1357;-20
2021/11/02 00:42:56;;;;;;;;;;;;;;;;;;1040748;28;1480;-19
2021/11/02 00:43:26;;;;;;;;;;;;;;;;;;1041145;28;1520;-19
2021/11/02 00:43:57;;;;;;;;;;;;;;;;;;1041115;28;1316;-19
2021/11/02 00:44:31;;;;;;;;;;;;;;;;;;1037137;28;1038;-19
2021/11/02 00:45:04;;;;;;;;;;;;;;;;;;1033898;28;1253;-20
2021/11/02 00:45:36;;;;;;;;;;;;;;;;;;1031601;28;1813;-19
2021/11/02 00:46:10;;;;;;;;;;;;;;;;;;1029800;28;1388;-18
2021/11/02 00:46:40;;;;;;;;;;;;;;;;;;1025687;28;956;-19
2021/11/02 00:47:18;;;;;;;;;;;;;;;;;;1024603;28;2048;-19
2021/11/02 00:47:52;;;;;;;;;;;;;;;;;;1025782;28;1047;-21
2021/11/02 00:48:27;;;;;;;;;;;;;;;;;;1036541;28;1546;-20
2021/11/02 00:48:58;;;;;;;;;;;;;;;;;;1037003;28;974;-19
2021/11/02 00:49:29;;;;;;;;;;;;;;;;;;1029940;28;1225;-20
2021/11/02 00:50:09;;;;;;;;;;;;;;;;;;1022459;28;1630;-19
2021/11/02 00:50:41;;;;;;;;;;;;;;;;;;1020923;28;1213;-19
2021/11/02 00:51:12;;;;;;;;;;;;;;;;;;1028319;28;1208;-20
2021/11/02 00:51:44;;;;;;;;;;;;;;;;;;1029680;28;1106;-20
2021/11/02 00:52:15;;;;;;;;;;;;;;;;;;1028444;28;1101;-21
2021/11/02 00:52:45;;;;;;;;;;;;;;;;;;1024432;28;1977;-21
2021/11/02 00:53:17;;;;;;;;;;;;;;;;;;1029655;28;1202;-19
2021/11/02 00:53:47;;;;;;;;;;;;;;;;;;1040722;28;1062;-19
2021/11/02 00:54:20;;;;;;;;;;;;;;;;;;1037071;28;1142;-20
2021/11/02 00:54:51;;;;;;;;;;;;;;;;;;1040082;28;1173;-19
2021/11/02 00:55:22;;;;;;;;;;;;;;;;;;1032892;28;1105;-19
2021/11/02 00:55:52;;;;;;;;;;;;;;;;;;1041057;28;939;-20
2021/11/02 00:56:25;;;;;;;;;;;;;;;;;;1036682;28;1560;-20
2021/11/02 00:56:56;;;;;;;;;;;;;;;;;;1040980;28;1049;-20
2021/11/02 00:57:27;;;;;;;;;;;;;;;;;;1035371;28;1111;-19
2021/11/02 00:58:02;;;;;;;;;;;;;;;;;;1024302;28;1381;-19
2021/11/02 00:58:33;;;;;;;;;;;;;;;;;;1025003;28;1107;-19
2021/11/02 00:59:06;;;;;;;;;;;;;;;;;;1029855;28;1403;-19
2021/11/02 00:59:37;;;;;;;;;;;;;;;;;;1032879;28;1345;-20
2021/11/02 01:00:10;;;;;;;;;;;;;;;;;;1033370;28;1290;-19
2021/11/02 01:00:42;;;;;;;;;;;;;;;;;;1031754;28;1721;-19
2021/11/02 01:01:13;;;;;;;;;;;;;;;;;;1029910;28;941;-20
2021/11/02 01:01:43;;;;;;;;;;;;;;;;;;1032968;28;1609;-19
2021/11/02 01:02:14;;;;;;;;;;;;;;;;;;1032844;28;1091;-19
2021/11/02 01:02:45;;;;;;;;;;;;;;;;;;1037019;28;1172;-21
2021/11/02 01:03:15;;;;;;;;;;;;;;;;;;1036573;28;1478;-20
2021/11/02 01:03:46;;;;;;;;;;;;;;;;;;1033105;28;1048;-19
2021/11/02 01:04:17;;;;;;;;;;;;;;;;;;1036868;28;1175;-18
2021/11/02 01:04:48;;;;;;;;;;;;;;;;;;1032541;28;1195;-19
2021/11/02 01:05:18;;;;;;;;;;;;;;;;;;1033115;28;1113;-20
2021/11/02 01:05:49;;;;;;;;;;;;;;;;;;1036383;28;1632;-19
2021/11/02 01:06:19;;;;;;;;;;;;;;;;;;1040955;28;1218;-20
2021/11/02 01:06:52;;;;;;;;;;;;;;;;;;1041029;28;1113;-19
2021/11/02 01:07:23;;;;;;;;;;;;;;;;;;1036739;28;1553;-20
2021/11/02 01:07:57;;;;;;;;;;;;;;;;;;1035713;28;1139;-19
2021/11/02 01:08:27;;;;;;;;;;;;;;;;;;1036771;28;1425;-20
2021/11/02 01:09:03;;;;;;;;;;;;;;;;;;1037827;28;1233;-19
2021/11/02 01:09:36;;;;;;;;;;;;;;;;;;1034029;28;1065;-20
2021/11/02 01:10:13;;;;;;;;;;;;;;;;;;1030475;28;1737;-20
2021/11/02 01:10:48;;;;;;;;;;;;;;;;;;1032799;28;1122;-20
2021/11/02 01:11:19;;;;;;;;;;;;;;;;;;1034113;28;1428;-19
2021/11/02 01:11:50;;;;;;;;;;;;;;;;;;1037104;28;1043;-20
2021/11/02 01:12:20;;;;;;;;;;;;;;;;;;1036302;28;1482;-20
2021/11/02 01:12:53;;;;;;;;;;;;;;;;;;1036373;28;1276;-20
2021/11/02 01:13:24;;;;;;;;;;;;;;;;;;1037125;28;1085;-19
2021/11/02 01:13:55;;;;;;;;;;;;;;;;;;1036322;28;1533;-20
2021/11/02 01:14:25;;;;;;;;;;;;;;;;;;1036744;28;1019;-19
2021/11/02 01:14:56;;;;;;;;;;;;;;;;;;1032732;28;945;-19
2021/11/02 01:15:28;;;;;;;;;;;;;;;;;;1028648;28;1456;-20
2021/11/02 01:15:59;;;;;;;;;;;;;;;;;;1036589;28;1190;-19
2021/11/02 01:16:31;;;;;;;;;;;;;;;;;;1032266;28;1502;-20
2021/11/02 01:17:02;;;;;;;;;;;;;;;;;;1028985;28;1072;-20
2021/11/02 01:17:34;;;;;;;;;;;;;;;;;;1031657;28;1036;-20
2021/11/02 01:18:05;;;;;;;;;;;;;;;;;;1024091;28;1131;-19
2021/11/02 01:18:39;;;;;;;;;;;;;;;;;;1031914;28;1131;-20
2021/11/02 01:19:10;;;;;;;;;;;;;;;;;;1028574;28;1087;-20
2021/11/02 01:19:41;;;;;;;;;;;;;;;;;;1032356;28;1471;-19
2021/11/02 01:20:12;;;;;;;;;;;;;;;;;;1028545;28;895;-20
2021/11/02 01:20:49;;;;;;;;;;;;;;;;;;1029263;28;898;-20
2021/11/02 01:21:23;;;;;;;;;;;;;;;;;;1033977;28;1145;-19
2021/11/02 01:21:54;;;;;;;;;;;;;;;;;;1032733;28;1396;-20
2021/11/02 01:22:30;;;;;;;;;;;;;;;;;;1032736;28;1281;-20
2021/11/02 01:23:00;;;;;;;;;;;;;;;;;;1032909;28;1066;-21
2021/11/02 01:23:32;;;;;;;;;;;;;;;;;;1031652;28;827;-19
2021/11/02 01:24:03;;;;;;;;;;;;;;;;;;1029637;28;812;-20
2021/11/02 01:24:34;;;;;;;;;;;;;;;;;;1037411;28;945;-20
2021/11/02 01:25:07;;;;;;;;;;;;;;;;;;1036722;28;1064;-19
2021/11/02 01:25:38;;;;;;;;;;;;;;;;;;1036993;28;1404;-19
2021/11/02 01:26:09;;;;;;;;;;;;;;;;;;1036399;28;1353;-19
2021/11/02 01:26:40;;;;;;;;;;;;;;;;;;1036658;28;1303;-21
2021/11/02 01:27:10;;;;;;;;;;;;;;;;;;1032069;28;1537;-19
2021/11/02 01:27:41;;;;;;;;;;;;;;;;;;1024422;28;1187;-21
2021/11/02 01:28:14;;;;;;;;;;;;;;;;;;1040837;28;1068;-19
2021/11/02 01:28:49;;;;;;;;;;;;;;;;;;1035784;28;1342;-19
2021/11/02 01:29:20;;;;;;;;;;;;;;;;;;1032660;28;1078;-20
2021/11/02 01:29:52;;;;;;;;;;;;;;;;;;1031419;28;1602;-18
2021/11/02 01:30:26;;;;;;;;;;;;;;;;;;1026144;28;1530;-19
2021/11/02 01:30:56;;;;;;;;;;;;;;;;;;1029318;28;955;-19
2021/11/02 01:31:27;;;;;;;;;;;;;;;;;;1032698;28;1370;-20
2021/11/02 01:31:58;;;;;;;;;;;;;;;;;;1036590;28;1277;-20
2021/11/02 01:32:37;;;;;;;;;;;;;;;;;;1036844;28;1903;-20
2021/11/02 01:33:07;;;;;;;;;;;;;;;;;;1036871;28;1308;-19
2021/11/02 01:33:43;;;;;;;;;;;;;;;;;;1033404;28;1162;-19
2021/11/02 01:34:13;;;;;;;;;;;;;;;;;;1029347;28;1429;-20
2021/11/02 01:34:45;;;;;;;;;;;;;;;;;;1036851;28;1258;-20
2021/11/02 01:35:17;;;;;;;;;;;;;;;;;;1036149;28;1438;-18
2021/11/02 01:35:53;;;;;;;;;;;;;;;;;;1036615;28;1315;-19
2021/11/02 01:36:24;;;;;;;;;;;;;;;;;;1031716;28;1344;-20
2021/11/02 01:37:02;;;;;;;;;;;;;;;;;;1028272;28;1275;-19
2021/11/02 01:37:36;;;;;;;;;;;;;;;;;;1028645;28;1173;-20
2021/11/02 01:38:10;;;;;;;;;;;;;;;;;;1034359;28;1299;-19
2021/11/02 01:38:42;;;;;;;;;;;;;;;;;;1041023;28;1040;-19
2021/11/02 01:39:16;;;;;;;;;;;;;;;;;;1040447;28;1527;-19
2021/11/02 01:39:47;;;;;;;;;;;;;;;;;;1040490;28;1142;-20
2021/11/02 01:40:17;;;;;;;;;;;;;;;;;;1035387;28;1128;-20
2021/11/02 01:40:51;;;;;;;;;;;;;;;;;;1027627;28;1442;-21
2021/11/02 01:41:26;;;;;;;;;;;;;;;;;;1029485;28;1108;-19
2021/11/02 01:42:01;;;;;;;;;;;;;;;;;;1034232;28;1160;-20
2021/11/02 01:42:32;;;;;;;;;;;;;;;;;;1036588;28;1101;-19
2021/11/02 01:43:04;;;;;;;;;;;;;;;;;;1033814;28;1006;-20
2021/11/02 01:43:35;;;;;;;;;;;;;;;;;;1028425;28;1395;-19
2021/11/02 01:44:05;;;;;;;;;;;;;;;;;;1028264;28;1342;-20
2021/11/02 01:44:39;;;;;;;;;;;;;;;;;;1024698;28;1534;-19
2021/11/02 01:45:14;;;;;;;;;;;;;;;;;;1028127;28;1264;-20
2021/11/02 01:45:45;;;;;;;;;;;;;;;;;;1027346;28;1368;-20
2021/11/02 01:46:37;;;;;;;;;;;;;;;;;;1028876;28;1447;-20
2021/11/02 01:47:08;;;;;;;;;;;;;;;;;;1029026;28;1424;-19
2021/11/02 01:47:43;;;;;;;;;;;;;;;;;;1027970;28;1497;-19
2021/11/02 01:48:16;;;;;;;;;;;;;;;;;;1021169;28;1281;-20
2021/11/02 01:48:49;;;;;;;;;;;;;;;;;;1026241;28;1422;-20
2021/11/02 01:49:22;;;;;;;;;;;;;;;;;;1032577;28;1378;-19
2021/11/02 01:49:53;;;;;;;;;;;;;;;;;;1024717;28;1059;-19
2021/11/02 01:50:24;;;;;;;;;;;;;;;;;;1023618;28;1923;-19
2021/11/02 01:50:54;;;;;;;;;;;;;;;;;;1020608;29;1212;-20
2021/11/02 01:51:29;;;;;;;;;;;;;;;;;;1024199;28;1574;-19
2021/11/02 01:52:00;;;;;;;;;;;;;;;;;;1028848;28;1151;-20
2021/11/02 01:52:32;;;;;;;;;;;;;;;;;;1029685;28;1967;-19
2021/11/02 01:53:04;;;;;;;;;;;;;;;;;;1035207;28;1628;-19
2021/11/02 01:53:35;;;;;;;;;;;;;;;;;;1040811;28;1396;-19
2021/11/02 01:54:10;;;;;;;;;;;;;;;;;;1040855;28;1512;-20
2021/11/02 01:54:43;;;;;;;;;;;;;;;;;;1034179;28;1452;-20
2021/11/02 01:55:14;;;;;;;;;;;;;;;;;;1027728;28;1106;-20
2021/11/02 01:55:46;;;;;;;;;;;;;;;;;;1024587;28;1354;-21
2021/11/02 01:56:18;;;;;;;;;;;;;;;;;;1025019;28;1023;-18
2021/11/02 01:56:49;;;;;;;;;;;;;;;;;;1032800;28;937;-19
2021/11/02 01:57:41;;;;;;;;;;;;;;;;;;1036575;28;1359;-20
2021/11/02 01:58:14;;;;;;;;;;;;;;;;;;1032699;28;1375;-20
2021/11/02 01:58:50;;;;;;;;;;;;;;;;;;1029591;28;1335;-20
2021/11/02 01:59:26;;;;;;;;;;;;;;;;;;1036721;28;1097;-20
2021/11/02 02:00:16;;;;;;;;;;;;;;;;;;1041093;28;1227;-20
2021/11/02 02:01:10;;;;;;;;;;;;;;;;;;1022712;28;1184;-20
2021/11/02 02:02:09;;;;;;;;;;;;;;;;;;1031076;28;1213;-19
2021/11/02 02:02:54;;;;;;;;;;;;;;;;;;1028562;28;1538;-19
2021/11/02 02:03:50;;;;;;;;;;;;;;;;;;1028790;28;1137;-20
2021/11/02 02:04:23;;;;;;;;;;;;;;;;;;1029585;28;1372;-20
2021/11/02 02:05:04;;;;;;;;;;;;;;;;;;1036748;28;966;-20
2021/11/02 02:05:47;;;;;;;;;;;;;;;;;;1036494;28;1736;-19
2021/11/02 02:06:37;;;;;;;;;;;;;;;;;;1029332;28;1287;-20
2021/11/02 02:07:17;;;;;;;;;;;;;;;;;;1024956;28;1398;-20
2021/11/02 02:08:12;;;;;;;;;;;;;;;;;;1032805;28;1055;-20
2021/11/02 02:09:03;;;;;;;;;;;;;;;;;;1036503;28;1082;-19
2021/11/02 02:09:43;;;;;;;;;;;;;;;;;;1037766;28;990;-20
2021/11/02 02:10:14;;;;;;;;;;;;;;;;;;1036579;28;1327;-19
2021/11/02 02:10:51;;;;;;;;;;;;;;;;;;1032073;28;1175;-21
2021/11/02 02:11:40;;;;;;;;;;;;;;;;;;1029971;28;1158;-20
2021/11/02 02:12:28;;;;;;;;;;;;;;;;;;1020440;28;1478;-20
2021/11/02 02:13:02;;;;;;;;;;;;;;;;;;1029196;28;1090;-21
2021/11/02 02:13:54;;;;;;;;;;;;;;;;;;1028959;28;1081;-19
2021/11/02 02:14:36;;;;;;;;;;;;;;;;;;1040856;28;1057;-20
2021/11/02 02:15:11;;;;;;;;;;;;;;;;;;1040813;28;1275;-19
2021/11/02 02:16:00;;;;;;;;;;;;;;;;;;1032316;28;1536;-20
2021/11/02 02:16:38;;;;;;;;;;;;;;;;;;1028656;28;1456;-20
2021/11/02 02:17:22;;;;;;;;;;;;;;;;;;1020293;28;1279;-21
2021/11/02 02:18:13;;;;;;;;;;;;;;;;;;1024496;28;1297;-21
2021/11/02 02:19:09;;;;;;;;;;;;;;;;;;1025181;28;1350;-20
2021/11/02 02:19:54;;;;;;;;;;;;;;;;;;1026688;28;1280;-20
2021/11/02 02:20:37;;;;;;;;;;;;;;;;;;1030480;28;1705;-21
2021/11/02 02:21:17;;;;;;;;;;;;;;;;;;1033169;28;1334;-22
2021/11/02 02:22:04;;;;;;;;;;;;;;;;;;1036666;28;898;-19
2021/11/02 02:22:54;;;;;;;;;;;;;;;;;;1036605;28;1251;-20
2021/11/02 02:23:43;;;;;;;;;;;;;;;;;;1032602;28;1225;-19
2021/11/02 02:24:34;;;;;;;;;;;;;;;;;;1033950;28;1346;-20
2021/11/02 02:25:12;;;;;;;;;;;;;;;;;;1033127;28;1355;-21
2021/11/02 02:25:49;;;;;;;;;;;;;;;;;;1032776;28;1691;-20
2021/11/02 02:26:49;;;;;;;;;;;;;;;;;;1028698;28;2387;-18
2021/11/02 02:27:32;;;;;;;;;;;;;;;;;;1040136;28;1257;-19
2021/11/02 02:28:08;;;;;;;;;;;;;;;;;;1036965;28;1710;-19
2021/11/02 02:28:43;;;;;;;;;;;;;;;;;;1036721;28;1482;-19
2021/11/02 02:29:23;;;;;;;;;;;;;;;;;;1020630;28;1458;-21
2021/11/02 02:29:54;;;;;;;;;;;;;;;;;;1024686;28;1180;-19
2021/11/02 02:30:26;;;;;;;;;;;;;;;;;;1030098;28;1305;-19
2021/11/02 02:31:00;;;;;;;;;;;;;;;;;;1024992;28;1203;-19
2021/11/02 02:31:32;;;;;;;;;;;;;;;;;;1028635;28;1417;-19
2021/11/02 02:32:10;;;;;;;;;;;;;;;;;;1027065;28;1051;-19
2021/11/02 02:32:44;;;;;;;;;;;;;;;;;;1020370;29;2095;-20
2021/11/02 02:33:16;;;;;;;;;;;;;;;;;;1020127;29;1811;-20
2021/11/02 02:33:48;;;;;;;;;;;;;;;;;;1017692;29;1266;-20
2021/11/02 02:34:33;;;;;;;;;;;;;;;;;;1023298;28;1255;-20
2021/11/02 02:35:08;;;;;;;;;;;;;;;;;;1028324;28;1398;-19
2021/11/02 02:35:45;;;;;;;;;;;;;;;;;;1028520;28;1380;-16
2021/11/02 02:36:17;;;;;;;;;;;;;;;;;;1028081;28;1429;-19
2021/11/02 02:37:21;;;;;;;;;;;;;;;;;;1031929;28;1579;-19
2021/11/02 02:38:00;;;;;;;;;;;;;;;;;;1028530;28;1179;-20
2021/11/02 02:38:31;;;;;;;;;;;;;;;;;;1028051;28;1583;-18
2021/11/02 02:39:02;;;;;;;;;;;;;;;;;;1032429;28;1226;-20
2021/11/02 02:39:35;;;;;;;;;;;;;;;;;;1032911;28;1235;-19
2021/11/02 02:40:13;;;;;;;;;;;;;;;;;;1033327;28;1438;-20
2021/11/02 02:40:45;;;;;;;;;;;;;;;;;;1031924;28;1236;-20
2021/11/02 02:41:21;;;;;;;;;;;;;;;;;;1037217;28;1492;-19
2021/11/02 02:41:52;;;;;;;;;;;;;;;;;;1033439;28;1344;-20
2021/11/02 02:42:26;;;;;;;;;;;;;;;;;;1033290;28;1375;-19
2021/11/02 02:42:59;;;;;;;;;;;;;;;;;;1029143;28;1517;-19
2021/11/02 02:43:35;;;;;;;;;;;;;;;;;;1024085;28;1259;-20
2021/11/02 02:44:07;;;;;;;;;;;;;;;;;;1022924;28;1028;-18
2021/11/02 02:44:41;;;;;;;;;;;;;;;;;;1034864;28;1185;-20
2021/11/02 02:45:15;;;;;;;;;;;;;;;;;;1029193;28;1281;-21
2021/11/02 02:45:48;;;;;;;;;;;;;;;;;;1025081;28;1412;-19
2021/11/02 02:46:20;;;;;;;;;;;;;;;;;;1028336;28;1299;-20
2021/11/02 02:46:51;;;;;;;;;;;;;;;;;;1025512;28;1588;-20
2021/11/02 02:47:22;;;;;;;;;;;;;;;;;;1033674;28;1357;-19
2021/11/02 02:47:58;;;;;;;;;;;;;;;;;;1037243;28;1261;-20
2021/11/02 02:48:29;;;;;;;;;;;;;;;;;;1032944;28;1232;-19
2021/11/02 02:49:00;;;;;;;;;;;;;;;;;;1025266;28;1216;-21
2021/11/02 02:49:32;;;;;;;;;;;;;;;;;;1024602;28;1375;-19
2021/11/02 02:50:05;;;;;;;;;;;;;;;;;;1025045;28;1173;-20
2021/11/02 02:50:37;;;;;;;;;;;;;;;;;;1018937;28;1570;-20
2021/11/02 02:51:09;;;;;;;;;;;;;;;;;;1025702;28;1405;-19
2021/11/02 02:51:42;;;;;;;;;;;;;;;;;;1029380;28;1015;-20
2021/11/02 02:52:15;;;;;;;;;;;;;;;;;;1030239;28;1489;-20
2021/11/02 02:52:52;;;;;;;;;;;;;;;;;;1033164;28;1914;-20
2021/11/02 02:53:23;;;;;;;;;;;;;;;;;;1028141;28;1244;-21
2021/11/02 02:53:57;;;;;;;;;;;;;;;;;;1029111;28;1199;-20
2021/11/02 02:54:28;;;;;;;;;;;;;;;;;;1029372;28;1230;-20
2021/11/02 02:55:04;;;;;;;;;;;;;;;;;;1030021;28;1782;-21
2021/11/02 02:55:35;;;;;;;;;;;;;;;;;;1032063;28;1369;-21
2021/11/02 02:56:07;;;;;;;;;;;;;;;;;;1029537;28;954;-20
2021/11/02 02:56:42;;;;;;;;;;;;;;;;;;1033549;28;1157;-21
2021/11/02 02:57:16;;;;;;;;;;;;;;;;;;1041556;28;943;-21
2021/11/02 02:57:48;;;;;;;;;;;;;;;;;;1045151;28;1527;-21
2021/11/02 02:58:21;;;;;;;;;;;;;;;;;;1043981;28;1231;-20
2021/11/02 02:58:53;;;;;;;;;;;;;;;;;;1031353;28;1246;-19
2021/11/02 02:59:25;;;;;;;;;;;;;;;;;;1031913;28;1153;-20
2021/11/02 02:59:57;;;;;;;;;;;;;;;;;;1025019;28;1526;-20
2021/11/02 03:00:28;;;;;;;;;;;;;;;;;;1021187;28;1281;-20
2021/11/02 03:00:59;;;;;;;;;;;;;;;;;;1032447;28;1213;-19
2021/11/02 03:01:39;;;;;;;;;;;;;;;;;;1029242;28;1153;-21
2021/11/02 03:02:12;;;;;;;;;;;;;;;;;;1028908;28;1293;-20
2021/11/02 03:02:44;;;;;;;;;;;;;;;;;;1033357;28;1342;-20
2021/11/02 03:03:16;;;;;;;;;;;;;;;;;;1033110;28;1274;-21
2021/11/02 03:03:52;;;;;;;;;;;;;;;;;;1037230;28;1010;-21
2021/11/02 03:04:27;;;;;;;;;;;;;;;;;;1037307;28;1310;-19
2021/11/02 03:04:59;;;;;;;;;;;;;;;;;;1031349;28;2444;-20
2021/11/02 03:05:30;;;;;;;;;;;;;;;;;;1029392;28;1236;-19
2021/11/02 03:06:09;;;;;;;;;;;;;;;;;;1028660;28;1397;-19
2021/11/02 03:06:44;;;;;;;;;;;;;;;;;;1029031;28;1133;-19
2021/11/02 03:07:16;;;;;;;;;;;;;;;;;;1029281;28;1778;-21
2021/11/02 03:07:47;;;;;;;;;;;;;;;;;;1027225;28;1338;-19
2021/11/02 03:08:18;;;;;;;;;;;;;;;;;;1025732;28;961;-20
2021/11/02 03:08:49;;;;;;;;;;;;;;;;;;1032936;28;1569;-19
2021/11/02 03:09:25;;;;;;;;;;;;;;;;;;1037577;28;960;-19
2021/11/02 03:09:57;;;;;;;;;;;;;;;;;;1034128;28;1366;-20
2021/11/02 03:10:29;;;;;;;;;;;;;;;;;;1031132;28;1266;-19
2021/11/02 03:11:01;;;;;;;;;;;;;;;;;;1025162;28;991;-21
2021/11/02 03:11:32;;;;;;;;;;;;;;;;;;1025482;28;1238;-20
2021/11/02 03:12:06;;;;;;;;;;;;;;;;;;1029955;28;1240;-20
2021/11/02 03:12:42;;;;;;;;;;;;;;;;;;1033341;28;1914;-20
2021/11/02 03:13:14;;;;;;;;;;;;;;;;;;1027906;28;1291;-19
2021/11/02 03:13:50;;;;;;;;;;;;;;;;;;1029897;28;1191;-20
2021/11/02 03:14:38;;;;;;;;;;;;;;;;;;1028869;28;1570;-19
2021/11/02 03:16:16;;;;;;;;;;;;;;;;;;1033388;28;1459;-20
2021/11/02 03:17:59;;;;;;;;;;;;;;;;;;1030070;28;1571;-20
2021/11/02 03:44:50;;;;;;;;;;;;;;;;;;1031632;28;1113;-20
2021/11/02 03:49:03;;;;;;;;;;;;;;;;;;1045394;28;1200;-19
2021/11/02 03:50:45;;;;;;;;;;;;;;;;;;1032543;28;1221;-20
2021/11/02 03:54:27;;;;;;;;;;;;;;;;;;1029180;28;1150;-20
2021/11/02 03:55:19;;;;;;;;;;;;;;;;;;1033239;28;1373;-19
2021/11/02 03:58:15;;;;;;;;;;;;;;;;;;1033143;28;1373;-20
2021/11/02 03:58:52;;;;;;;;;;;;;;;;;;1030638;28;1817;-20
2021/11/02 04:01:28;;;;;;;;;;;;;;;;;;1028705;28;1431;-19
2021/11/02 04:28:02;;;;;;;;;;;;;;;;;;1032906;28;1684;-20
2021/11/02 05:20:33;;;;;;;;;;;;;;;;;;1034069;28;1170;-19
2021/11/02 05:48:57;;;;;;;;;;;;;;;;;;1028788;28;1594;-20
2021/11/02 05:49:48;;;;;;;;;;;;;;;;;;1036460;28;1049;-20
2021/11/02 05:55:58;;;;;;;;;;;;;;;;;;1026611;28;997;-20
2021/11/02 05:57:16;;;;;;;;;;;;;;;;;;1036943;28;1443;-18
2021/11/02 05:59:16;;;;;;;;;;;;;;;;;;1032914;28;1403;-20
2021/11/02 06:00:01;;;;;;;;;;;;;;;;;;1036651;28;1274;-20
2021/11/02 06:00:37;;;;;;;;;;;;;;;;;;1037068;28;1092;-18
2021/11/02 06:01:54;;;;;;;;;;;;;;;;;;1032792;28;1091;-19
2021/11/02 06:05:49;;;;;;;;;;;;;;;;;;1040760;28;1112;-20
2021/11/02 06:09:56;;;;;;;;;;;;;;;;;;1040561;28;1450;-19
2021/11/02 06:28:12;;;;;;;;;;;;;;;;;;1032613;28;1116;-19
2021/11/02 06:28:49;;;;;;;;;;;;;;;;;;1032534;28;1233;-19
2021/11/02 06:29:23;;;;;;;;;;;;;;;;;;1036375;28;903;-19
2021/11/02 06:29:54;;;;;;;;;;;;;;;;;;1036736;28;1177;-20
2021/11/02 06:30:49;;;;;;;;;;;;;;;;;;1036255;28;945;-20
2021/11/02 06:31:39;;;;;;;;;;;;;;;;;;1032452;28;1439;-20
2021/11/02 06:32:46;;;;;;;;;;;;;;;;;;1032346;28;1316;-17
2021/11/02 06:33:33;;;;;;;;;;;;;;;;;;1032313;28;1922;-20
2021/11/02 06:36:14;;;;;;;;;;;;;;;;;;1036818;28;995;-20
2021/11/02 06:37:01;;;;;;;;;;;;;;;;;;1036214;28;1664;-19
2021/11/02 06:37:52;;;;;;;;;;;;;;;;;;1040877;28;1349;-20
2021/11/02 06:39:29;;;;;;;;;;;;;;;;;;1040585;28;1168;-22
2021/11/02 06:44:18;;;;;;;;;;;;;;;;;;1036977;28;882;-19
2021/11/02 06:50:17;;;;;;;;;;;;;;;;;;1032791;28;898;-19
2021/11/02 07:10:58;;;;;;;;;;;;;;;;;;1031043;28;1618;-19
2021/11/02 07:17:04;;;;;;;;;;;;;;;;;;1032661;28;1179;-20
2021/11/02 07:18:28;;;;;;;;;;;;;;;;;;1036808;28;903;-19
2021/11/02 07:19:26;;;;;;;;;;;;;;;;;;1036595;28;1463;-20
2021/11/02 07:20:26;;;;;;;;;;;;;;;;;;1034646;28;1408;-20
2021/11/02 07:21:43;;;;;;;;;;;;;;;;;;1032429;28;1218;-20
2021/11/02 07:25:54;;;;;;;;;;;;;;;;;;1037009;28;1612;-21
2021/11/02 07:27:15;;;;;;;;;;;;;;;;;;1023056;28;1465;-20
2021/11/02 08:45:31;;;;;;;;;;;;;;;;;;1026593;28;926;-21
2021/11/02 08:46:43;;;;;;;;;;;;;;;;;;1028085;28;1478;-21
2021/11/02 08:47:18;;;;;;;;;;;;;;;;;;1035771;28;916;-19
2021/11/02 08:47:52;;;;;;;;;;;;;;;;;;1028391;28;1225;-20
2021/11/02 08:48:26;;;;;;;;;;;;;;;;;;1023428;28;1350;-19
2021/11/02 08:48:59;;;;;;;;;;;;;;;;;;1024560;28;1347;-21
2021/11/02 08:49:30;;;;;;;;;;;;;;;;;;1021455;28;1166;-20
2021/11/02 08:50:03;;;;;;;;;;;;;;;;;;1025048;28;1990;-19
2021/11/02 08:50:49;;;;;;;;;;;;;;;;;;1028563;28;871;-20
2021/11/02 08:51:20;;;;;;;;;;;;;;;;;;1028743;28;1096;-19
2021/11/02 08:51:52;;;;;;;;;;;;;;;;;;1036428;28;1079;-19
2021/11/02 08:52:24;;;;;;;;;;;;;;;;;;1035296;28;1462;-19
2021/11/02 08:52:56;;;;;;;;;;;;;;;;;;1040339;28;1934;-19
2021/11/02 08:53:28;;;;;;;;;;;;;;;;;;1039285;28;1460;-20
2021/11/02 08:54:04;;;;;;;;;;;;;;;;;;1040683;28;1244;-18
2021/11/02 08:54:36;;;;;;;;;;;;;;;;;;1039025;28;1190;-19
2021/11/02 08:55:08;;;;;;;;;;;;;;;;;;1039805;28;2000;-20
2021/11/02 08:55:41;;;;;;;;;;;;;;;;;;1039067;28;1117;-20
2021/11/02 08:56:13;;;;;;;;;;;;;;;;;;1043741;28;1329;-20
2021/11/02 08:56:44;;;;;;;;;;;;;;;;;;1039505;28;1221;-21
2021/11/02 08:57:16;;;;;;;;;;;;;;;;;;1038667;28;1097;-21
2021/11/02 08:57:48;;;;;;;;;;;;;;;;;;1031767;28;1290;-20
2021/11/02 08:58:18;;;;;;;;;;;;;;;;;;1024429;28;1196;-19
2021/11/02 08:58:51;;;;;;;;;;;;;;;;;;1026686;28;1267;-19
2021/11/02 08:59:21;;;;;;;;;;;;;;;;;;1027332;28;1427;-20
2021/11/02 08:59:52;;;;;;;;;;;;;;;;;;1033354;28;1222;-20
2021/11/02 09:00:26;;;;;;;;;;;;;;;;;;1032146;28;1536;-20
2021/11/02 09:00:59;;;;;;;;;;;;;;;;;;1028013;28;1136;-20
2021/11/02 09:01:33;;;;;;;;;;;;;;;;;;1032341;28;1431;-19
2021/11/02 09:02:06;;;;;;;;;;;;;;;;;;1023738;28;1418;-20
2021/11/02 09:02:40;;;;;;;;;;;;;;;;;;1020351;28;1313;-20
2021/11/02 09:03:15;;;;;;;;;;;;;;;;;;1023332;28;1534;-20
2021/11/02 09:03:46;;;;;;;;;;;;;;;;;;1024154;28;1095;-20
2021/11/02 09:04:19;;;;;;;;;;;;;;;;;;1025318;28;1499;-20